Country
Station

 

Weather  for  Oklahoma City, Wiley Post Airport  -  United States    United States

  
19 °C (66 °F)
    
 
 

Current METAR for Oklahoma City, Wiley Post Airport is :

KPWA 161853Z 16007KT 10SM CLR 19/03 A3005 RMK AO2 SLP171 T01890033

 

This is a report for Oklahoma City, Wiley Post Airport - United States.
 
The report was made 9 minutes ago, at 18:53 UTC .
The wind was blowing at a speed of 3.6 meters per second (8.1 miles per hour) from south/southeast (160°).
 
The temperature was 19 °C (66 °F), with a dew-point at 3 °C (37 °F).
The atmospheric pressure was 1018 hPa (30.05 inHg).
The relative humidity was 34.5%.
 
The sky was clear.
 
The overall visibility was 16.1 kilometers (10.0 miles).
 

 
 
 
 

Country :   A   B   C   D   E   F   G   H   I   J   K   L   M   N   O   P   Q   R   S   T   U   V   W   Y   Z

 

Site Info  |  Disclaimer  |  Credits  |  Privacy
Contact us  |  Add to favorites
© 2013-2018 METARs - All rights reserved